Time;durP1;ratioP1;P1;durP2;ratioP2;P2;SDS_P1;SDS_P2;PMS_P1;PMS_P2;Temp;Humidity;BMP_temperature;BMP_pressure;BME280_temperature;BME280_humidity;BME280_pressure;Samples;Min_cycle;Max_cycle;Signal;HPM_P1;HPM_P2
2021/08/04 00:00:10;;;;;;;8.57;7.40;;;512.90;2380.80;;;;;;5022474;28;20026;-62
2021/08/04 00:02:35;;;;;;;10.98;7.45;;;512.90;2380.80;;;;;;5022070;28;20073;-61
2021/08/04 00:05:02;;;;;;;11.10;7.85;;;512.90;2380.80;;;;;;5023408;28;20060;-59
2021/08/04 00:07:27;;;;;;;11.07;8.05;;;512.60;2380.80;;;;;;5021215;28;20029;-60
2021/08/04 00:09:53;;;;;;;11.30;7.85;;;512.50;2380.80;;;;;;5022541;28;20598;-56
2021/08/04 00:12:19;;;;;;;12.60;8.57;;;512.40;2380.80;;;;;;5022532;28;20033;-60
2021/08/04 00:14:45;;;;;;;12.48;7.47;;;512.60;2380.80;;;;;;5020963;28;20472;-55
2021/08/04 00:17:10;;;;;;;10.35;7.80;;;512.60;2380.80;;;;;;5022650;28;20022;-60
2021/08/04 00:19:36;;;;;;;12.80;6.95;;;512.60;2380.80;;;;;;5022607;28;20065;-56
2021/08/04 00:22:03;;;;;;;10.35;6.85;;;512.70;2380.80;;;;;;5020792;28;20076;-59
2021/08/04 00:24:29;;;;;;;8.27;6.40;;;512.90;2380.80;;;;;;5020716;28;20037;-58
2021/08/04 00:26:55;;;;;;;11.02;6.53;;;537.60;2406.40;;;;;;5021872;28;20033;-57
2021/08/04 00:29:20;;;;;;;10.55;8.38;;;537.60;2406.40;;;;;;5021266;28;20053;-60
2021/08/04 00:31:46;;;;;;;14.32;8.50;;;512.90;2380.80;;;;;;5011973;28;20080;-57
2021/08/04 00:34:12;;;;;;;10.00;6.43;;;512.90;2380.80;;;;;;5011910;28;20025;-57
2021/08/04 00:36:38;;;;;;;10.02;6.50;;;512.70;2380.80;;;;;;5012390;28;20022;-58
2021/08/04 00:39:04;;;;;;;14.32;6.95;;;512.70;2380.80;;;;;;5012585;28;20504;-58
2021/08/04 00:41:39;;;;;;;9.68;8.27;;;512.70;2380.80;;;;;;5012460;28;20077;-56
2021/08/04 00:44:05;;;;;;;9.25;7.90;;;512.50;2380.80;;;;;;5013142;28;20034;-57
2021/08/04 00:46:31;;;;;;;9.77;7.30;;;512.50;2380.80;;;;;;5012810;28;20104;-55
2021/08/04 00:48:57;;;;;;;12.18;7.35;;;512.40;2380.80;;;;;;5011698;28;20106;-56
2021/08/04 00:51:23;;;;;;;11.02;7.38;;;512.40;2380.80;;;;;;5012570;28;20022;-55
2021/08/04 00:53:49;;;;;;;10.45;7.05;;;512.50;2380.80;;;;;;5012491;28;20396;-56
2021/08/04 00:56:15;;;;;;;12.55;7.22;;;512.40;2380.80;;;;;;5013032;28;20064;-55
2021/08/04 00:58:42;;;;;;;7.97;6.82;;;512.50;2380.80;;;;;;5011230;28;20387;-56
2021/08/04 01:01:25;;;;;;;10.75;7.10;;;512.40;2380.80;;;;;;5012551;28;20113;-58
2021/08/04 01:04:08;;;;;;;12.07;7.03;;;512.30;2380.80;;;;;;5012417;28;20034;-58
2021/08/04 01:06:39;;;;;;;9.00;7.25;;;512.40;2380.80;;;;;;5012482;28;20041;-55
2021/08/04 01:09:08;;;;;;;7.95;6.65;;;512.10;2380.80;;;;;;5012798;28;20026;-55
2021/08/04 01:11:37;;;;;;;11.50;7.32;;;512.20;2380.80;;;;;;5012809;28;20069;-55
2021/08/04 01:14:13;;;;;;;12.45;7.88;;;512.20;2380.80;;;;;;5012439;28;20049;-55
2021/08/04 01:16:43;;;;;;;11.80;7.60;;;512.10;2380.80;;;;;;5012342;28;20104;-55
2021/08/04 01:19:27;;;;;;;10.82;7.72;;;512.00;2380.80;;;;;;5012488;28;20018;-56
2021/08/04 01:22:07;;;;;;;8.90;7.35;;;487.10;2380.80;;;;;;5012213;28;20054;-56
2021/08/04 01:24:36;;;;;;;8.23;6.93;;;487.10;2380.80;;;;;;5012131;28;20041;-56
2021/08/04 01:27:02;;;;;;;9.05;6.55;;;487.10;2380.80;;;;;;5011831;28;20046;-61
2021/08/04 01:29:28;;;;;;;13.65;7.60;;;487.10;2380.80;;;;;;5011798;28;20101;-56
2021/08/04 01:31:58;;;;;;;11.13;8.02;;;487.20;2380.80;;;;;;4995037;28;20108;-57
2021/08/04 01:34:25;;;;;;;12.20;6.90;;;487.20;2380.80;;;;;;5012070;28;20018;-59
2021/08/04 01:36:51;;;;;;;12.35;7.30;;;487.20;2380.80;;;;;;5011830;28;20108;-56
2021/08/04 01:39:20;;;;;;;10.75;7.32;;;487.30;2380.80;;;;;;5011844;28;20022;-57
2021/08/04 01:41:48;;;;;;;10.23;7.03;;;487.30;2380.80;;;;;;5011897;28;20113;-55
2021/08/04 01:44:14;;;;;;;13.07;7.38;;;487.30;2380.80;;;;;;5011732;28;20109;-55
2021/08/04 01:46:41;;;;;;;7.90;6.63;;;487.30;2380.80;;;;;;5011839;28;20167;-57
2021/08/04 01:49:09;;;;;;;7.60;6.63;;;487.30;2380.80;;;;;;5012045;28;20022;-55
2021/08/04 01:51:36;;;;;;;9.70;6.18;;;512.00;2380.80;;;;;;5011622;28;20030;-58
2021/08/04 01:54:03;;;;;;;11.55;7.38;;;512.00;2380.80;;;;;;5011492;28;20417;-58
2021/08/04 01:56:28;;;;;;;8.10;6.13;;;512.10;2380.80;;;;;;5011247;28;20026;-57
2021/08/04 01:58:55;;;;;;;10.40;6.55;;;512.10;2380.80;;;;;;5011520;28;20029;-55
2021/08/04 02:01:25;;;;;;;12.30;6.57;;;512.20;2380.80;;;;;;5011312;28;20113;-55
2021/08/04 02:03:51;;;;;;;9.20;6.30;;;512.20;2380.80;;;;;;5011356;28;20038;-55
2021/08/04 02:06:30;;;;;;;11.70;7.40;;;512.10;2380.80;;;;;;5011641;28;20468;-58
2021/08/04 02:09:16;;;;;;;13.07;6.55;;;512.10;2380.80;;;;;;5010649;28;20030;-55
2021/08/04 02:11:54;;;;;;;9.15;6.45;;;512.00;2380.80;;;;;;5010632;28;20399;-58
2021/08/04 02:14:36;;;;;;;9.57;5.85;;;487.30;2380.80;;;;;;5011085;28;20532;-59
2021/08/04 02:17:09;;;;;;;7.35;6.00;;;487.10;2380.80;;;;;;5010998;28;20037;-54
2021/08/04 02:19:50;;;;;;;8.00;6.40;;;487.10;2380.80;;;;;;5011423;28;20022;-55
2021/08/04 02:22:53;;;;;;;7.55;5.25;;;487.10;2380.80;;;;;;5010981;28;20121;-55
2021/08/04 02:25:31;;;;;;;6.25;4.70;;;487.10;2380.80;;;;;;4992775;28;20041;-56
2021/08/04 02:27:59;;;;;;;6.75;5.40;;;487.20;2380.80;;;;;;5010769;28;20072;-56
2021/08/04 02:30:27;;;;;;;12.73;5.97;;;487.30;2380.80;;;;;;4993049;28;20042;-54
2021/08/04 02:32:54;;;;;;;10.27;5.03;;;487.30;2380.80;;;;;;4993832;28;20026;-56
2021/08/04 02:35:20;;;;;;;8.82;5.90;;;512.00;2380.80;;;;;;5010825;28;20109;-57
2021/08/04 02:37:46;;;;;;;12.18;5.68;;;487.30;2380.80;;;;;;5011044;28;20080;-56
2021/08/04 02:40:13;;;;;;;8.43;4.82;;;487.30;2380.80;;;;;;5010727;28;20499;-57
2021/08/04 02:42:41;;;;;;;10.10;5.63;;;487.20;2380.80;;;;;;5010767;28;20510;-56
2021/08/04 02:45:07;;;;;;;8.00;5.30;;;487.20;2380.80;;;;;;5010922;28;20026;-58
2021/08/04 02:47:34;;;;;;;7.13;4.97;;;487.20;2380.80;;;;;;5011071;28;20033;-54
2021/08/04 02:50:02;;;;;;;8.73;5.28;;;487.20;2380.80;;;;;;5010488;28;20093;-54
2021/08/04 02:52:28;;;;;;;6.97;5.03;;;487.30;2380.80;;;;;;5010381;28;20034;-54
2021/08/04 02:54:54;;;;;;;9.18;5.20;;;512.00;2380.80;;;;;;5010719;28;20040;-58
2021/08/04 02:57:20;;;;;;;8.35;5.70;;;512.00;2380.80;;;;;;5010410;28;20030;-58
2021/08/04 02:59:46;;;;;;;8.70;5.45;;;487.30;2380.80;;;;;;5010482;28;20484;-54
2021/08/04 03:02:11;;;;;;;9.70;5.10;;;487.30;2380.80;;;;;;5010489;28;20022;-54
2021/08/04 03:04:37;;;;;;;8.27;6.38;;;487.10;2380.80;;;;;;4992308;28;20038;-55
2021/08/04 03:07:03;;;;;;;9.57;5.82;;;487.10;2380.80;;;;;;5010689;28;20022;-55
2021/08/04 03:09:29;;;;;;;6.60;5.55;;;487.10;2380.80;;;;;;5010408;28;20251;-54
2021/08/04 03:11:54;;;;;;;8.63;5.07;;;487.10;2380.80;;;;;;5010558;28;20030;-54
2021/08/04 03:14:20;;;;;;;8.70;5.18;;;487.10;2380.80;;;;;;5009862;28;20535;-58
2021/08/04 03:16:46;;;;;;;9.15;5.63;;;487.00;2380.80;;;;;;5010045;28;20065;-52
2021/08/04 03:19:13;;;;;;;8.88;5.40;;;487.00;2380.80;;;;;;5010273;28;20109;-54
2021/08/04 03:21:39;;;;;;;10.93;5.43;;;487.00;2380.80;;;;;;5010055;28;20038;-56
2021/08/04 03:24:05;;;;;;;8.90;6.00;;;486.70;2380.80;;;;;;4992531;28;20586;-56
2021/08/04 03:26:31;;;;;;;11.82;5.60;;;487.00;2380.80;;;;;;5021445;28;20045;-56
2021/08/04 03:28:57;;;;;;;12.02;5.88;;;487.00;2380.80;;;;;;5029273;28;20068;-55
2021/08/04 03:31:23;;;;;;;8.50;5.57;;;487.00;2380.80;;;;;;5029840;28;20018;-55
2021/08/04 03:33:48;;;;;;;12.95;5.65;;;487.00;2380.80;;;;;;5029314;28;20105;-55
2021/08/04 03:36:14;;;;;;;15.35;6.07;;;486.90;2380.80;;;;;;5030094;28;20033;-57
2021/08/04 03:38:40;;;;;;;15.90;6.78;;;486.80;2380.80;;;;;;5029855;28;20030;-57
2021/08/04 03:41:07;;;;;;;11.63;5.65;;;486.70;2380.80;;;;;;5030082;28;20029;-55
2021/08/04 03:43:32;;;;;;;11.98;6.75;;;486.60;2380.80;;;;;;5029770;28;20124;-56
2021/08/04 03:45:58;;;;;;;8.35;5.32;;;486.60;2380.80;;;;;;5029457;28;20133;-54
2021/08/04 03:48:24;;;;;;;13.70;6.07;;;486.50;2380.80;;;;;;5029719;28;20095;-55
2021/08/04 03:50:50;;;;;;;8.65;5.30;;;486.60;2380.80;;;;;;5029754;28;20025;-56
2021/08/04 03:53:16;;;;;;;8.23;4.63;;;486.70;2380.80;;;;;;5029752;28;20513;-54
2021/08/04 03:55:42;;;;;;;6.18;4.00;;;486.80;2380.80;;;;;;5029719;28;20030;-58
2021/08/04 03:58:07;;;;;;;7.32;4.70;;;487.00;2380.80;;;;;;5029710;28;20060;-59
2021/08/04 04:00:33;;;;;;;6.13;4.57;;;487.10;2380.80;;;;;;5029525;28;20022;-58
2021/08/04 04:02:59;;;;;;;6.32;4.63;;;487.10;2380.80;;;;;;5029324;28;20042;-55
2021/08/04 04:05:25;;;;;;;11.70;4.80;;;487.10;2380.80;;;;;;5029651;28;20053;-57
2021/08/04 04:07:50;;;;;;;12.25;4.80;;;487.20;2380.80;;;;;;5029301;28;20025;-55
2021/08/04 04:10:16;;;;;;;10.52;4.30;;;487.10;2380.80;;;;;;5029662;28;20120;-55
2021/08/04 04:12:42;;;;;;;13.70;5.20;;;487.10;2380.80;;;;;;5029767;28;20029;-54
2021/08/04 04:15:08;;;;;;;7.82;4.55;;;487.10;2380.80;;;;;;5029434;28;20022;-55
2021/08/04 04:17:34;;;;;;;10.88;4.63;;;487.00;2380.80;;;;;;5029564;28;20040;-55
2021/08/04 04:20:00;;;;;;;9.27;4.00;;;487.00;2380.80;;;;;;5029515;28;20025;-55
2021/08/04 04:22:25;;;;;;;9.57;5.60;;;487.10;2380.80;;;;;;5029277;28;20087;-54
2021/08/04 04:24:51;;;;;;;10.38;5.15;;;487.20;2380.80;;;;;;5029313;28;20034;-54
2021/08/04 04:27:17;;;;;;;8.10;5.15;;;487.30;2380.80;;;;;;5029065;28;20369;-56
2021/08/04 04:29:43;;;;;;;8.05;3.90;;;487.30;2380.80;;;;;;5029413;28;20038;-55
2021/08/04 04:32:09;;;;;;;9.25;4.93;;;487.30;2380.80;;;;;;5011868;28;20079;-54
2021/08/04 04:34:36;;;;;;;7.88;5.20;;;512.10;2380.80;;;;;;5033353;28;20048;-54
2021/08/04 04:37:01;;;;;;;6.95;4.78;;;512.10;2380.80;;;;;;5033068;28;20021;-56
2021/08/04 04:39:27;;;;;;;12.63;5.47;;;512.10;2380.80;;;;;;5032892;28;20467;-53
2021/08/04 04:41:53;;;;;;;9.43;4.90;;;512.40;2380.80;;;;;;5032909;28;20045;-56
2021/08/04 04:44:19;;;;;;;9.60;4.78;;;512.50;2380.80;;;;;;5032528;28;20037;-57
2021/08/04 04:46:45;;;;;;;11.05;5.28;;;512.50;2380.80;;;;;;5032762;28;20026;-59
2021/08/04 04:49:10;;;;;;;8.77;5.30;;;512.60;2380.80;;;;;;5032505;28;20052;-56
2021/08/04 04:51:39;;;;;;;8.82;4.85;;;512.60;2380.80;;;;;;5032692;28;20036;-59
2021/08/04 04:54:05;;;;;;;8.40;4.40;;;512.90;2380.80;;;;;;5032762;28;20025;-59
2021/08/04 04:56:30;;;;;;;6.95;4.63;;;512.90;2380.80;;;;;;5032278;28;20025;-59
2021/08/04 04:58:56;;;;;;;8.52;4.47;;;537.80;2406.40;;;;;;5032531;28;20108;-59
2021/08/04 05:01:22;;;;;;;7.75;5.45;;;538.00;2406.40;;;;;;5032218;28;20063;-58
2021/08/04 05:03:48;;;;;;;8.93;5.13;;;589.30;2380.80;;;;;;5032091;28;20029;-58
2021/08/04 05:06:14;;;;;;;6.90;5.82;;;717.20;1868.80;;;;;;5032337;28;20026;-59
2021/08/04 05:08:39;;;;;;;8.35;6.15;;;794.10;1638.40;;;;;;5032411;28;20040;-58
2021/08/04 05:11:05;;;;;;;9.30;6.55;;;870.50;1408.00;;;;;;5032452;28;20168;-60
2021/08/04 05:13:31;;;;;;;7.45;6.65;;;870.90;1356.80;;;;;;5032174;28;20095;-59
2021/08/04 05:15:57;;;;;;;7.65;6.80;;;896.20;1280.00;;;;;;5032128;28;20361;-59
2021/08/04 05:18:22;;;;;;;6.75;6.05;;;921.70;1228.80;;;;;;5032043;28;20391;-59
2021/08/04 05:20:48;;;;;;;8.02;7.22;;;922.50;1152.00;;;;;;5031877;28;20097;-59
2021/08/04 05:23:14;;;;;;;8.30;6.93;;;948.10;1100.80;;;;;;5031949;28;20053;-61
2021/08/04 05:25:41;;;;;;;9.32;6.82;;;973.20;1075.20;;;;;;5032183;28;20033;-59
2021/08/04 05:28:07;;;;;;;8.40;7.60;;;998.40;1049.60;;;;;;5031800;28;20573;-60
2021/08/04 05:30:33;;;;;;;9.07;7.50;;;1024.30;998.40;;;;;;5031939;28;20037;-60
2021/08/04 05:32:58;;;;;;;9.02;8.27;;;1024.00;972.80;;;;;;5031510;28;20025;-61
2021/08/04 05:35:24;;;;;;;8.40;7.38;;;973.70;998.40;;;;;;5031734;28;20025;-64
2021/08/04 05:37:50;;;;;;;9.10;8.30;;;973.20;1024.00;;;;;;5031514;28;20037;-61
2021/08/04 05:40:16;;;;;;;8.48;7.10;;;973.60;998.40;;;;;;5031934;28;20100;-63
2021/08/04 05:42:42;;;;;;;9.55;8.52;;;973.60;998.40;;;;;;5031435;28;20037;-62
2021/08/04 05:45:08;;;;;;;8.57;7.30;;;999.00;972.80;;;;;;5031395;28;20028;-60
2021/08/04 05:47:34;;;;;;;10.25;9.35;;;973.10;998.40;;;;;;5031701;28;20025;-61
2021/08/04 05:49:59;;;;;;;15.10;10.10;;;1024.20;947.20;;;;;;5031477;28;20028;-62
2021/08/04 05:52:25;;;;;;;12.05;10.43;;;1024.60;921.60;;;;;;5031296;28;20036;-62
2021/08/04 05:54:51;;;;;;;11.85;10.77;;;1024.30;947.20;;;;;;5031144;28;20613;-59
2021/08/04 05:57:17;;;;;;;13.50;10.85;;;1024.40;947.20;;;;;;5031499;28;20022;-61
2021/08/04 05:59:43;;;;;;;11.35;10.35;;;1024.60;921.60;;;;;;5031410;28;20464;-62
2021/08/04 06:02:08;;;;;;;14.48;12.55;;;1049.70;947.20;;;;;;5031146;28;20391;-61
2021/08/04 06:04:34;;;;;;;19.98;16.20;;;1050.20;921.60;;;;;;5031180;28;20034;-61
2021/08/04 06:07:00;;;;;;;26.23;16.75;;;1050.50;921.60;;;;;;5030924;28;20029;-62
2021/08/04 06:09:26;;;;;;;22.02;17.48;;;1049.90;947.20;;;;;;5031212;28;20072;-63
2021/08/04 06:11:52;;;;;;;20.88;15.80;;;1050.10;947.20;;;;;;5030877;28;20494;-62
2021/08/04 06:14:17;;;;;;;29.63;17.10;;;1075.70;896.00;;;;;;5030908;28;20075;-59
2021/08/04 06:16:43;;;;;;;26.15;14.10;;;1049.80;947.20;;;;;;5030732;28;20040;-61
2021/08/04 06:19:09;;;;;;;23.63;15.18;;;1049.60;947.20;;;;;;5030945;28;20100;-60
2021/08/04 06:21:34;;;;;;;18.75;14.88;;;1050.40;921.60;;;;;;5030887;28;20037;-55
2021/08/04 06:24:00;;;;;;;20.00;14.80;;;1101.00;870.40;;;;;;5030599;28;20072;-60
2021/08/04 06:26:26;;;;;;;16.50;14.88;;;1101.40;844.80;;;;;;5030808;28;20560;-58
2021/08/04 06:28:51;;;;;;;15.43;13.90;;;1075.70;870.40;;;;;;5030552;28;20025;-59
2021/08/04 06:31:17;;;;;;;16.20;12.30;;;1075.70;844.80;;;;;;5030392;28;20026;-57
2021/08/04 06:33:43;;;;;;;18.20;12.73;;;1049.90;921.60;;;;;;5030852;28;20029;-61
2021/08/04 06:36:09;;;;;;;14.73;13.23;;;1075.20;896.00;;;;;;5030599;28;20096;-63
2021/08/04 06:38:35;;;;;;;15.13;13.73;;;1076.10;844.80;;;;;;5030680;28;20037;-62
2021/08/04 06:41:01;;;;;;;14.85;13.25;;;1100.90;844.80;;;;;;5030510;28;20017;-63
2021/08/04 06:43:27;;;;;;;17.27;14.02;;;1100.90;844.80;;;;;;5030484;28;20040;-64
2021/08/04 06:45:53;;;;;;;17.38;15.88;;;1075.40;870.40;;;;;;5030326;28;20022;-63
2021/08/04 06:48:19;;;;;;;16.20;14.80;;;1101.30;844.80;;;;;;5030129;28;20037;-62
2021/08/04 06:50:45;;;;;;;17.38;15.63;;;1101.30;819.20;;;;;;5030370;28;20112;-59
2021/08/04 06:53:10;;;;;;;16.27;14.02;;;1100.90;844.80;;;;;;5030271;28;20056;-57
2021/08/04 06:55:36;;;;;;;18.17;16.45;;;1152.60;768.00;;;;;;5030122;28;20072;-59
2021/08/04 06:58:02;;;;;;;16.17;14.48;;;1152.00;793.60;;;;;;5030073;28;20029;-57
2021/08/04 07:00:28;;;;;;;16.70;15.10;;;1127.30;793.60;;;;;;5030039;28;20064;-59
2021/08/04 07:02:54;;;;;;;17.42;16.00;;;1177.60;768.00;;;;;;5030227;28;20065;-60
2021/08/04 07:05:20;;;;;;;16.17;14.57;;;1127.10;793.60;;;;;;5030103;28;20026;-60
2021/08/04 07:07:46;;;;;;;16.50;15.30;;;1177.60;768.00;;;;;;5030105;28;20026;-59
2021/08/04 07:10:13;;;;;;;18.85;14.43;;;1178.30;716.80;;;;;;5029936;28;20021;-59
2021/08/04 07:12:39;;;;;;;17.75;14.60;;;1152.20;768.00;;;;;;5030189;28;20024;-58
2021/08/04 07:15:06;;;;;;;17.10;14.88;;;1203.20;742.40;;;;;;5030271;28;20029;-58
2021/08/04 07:17:45;;;;;;;16.40;15.10;;;1178.30;716.80;;;;;;5029926;28;20075;-57
2021/08/04 07:20:13;;;;;;;16.90;15.18;;;1203.60;716.80;;;;;;5029834;28;20057;-59
2021/08/04 07:22:39;;;;;;;19.20;15.82;;;1203.30;742.40;;;;;;5029601;28;20120;-57
2021/08/04 07:25:05;;;;;;;17.40;15.93;;;1204.10;691.20;;;;;;5030152;28;20117;-59
2021/08/04 07:27:31;;;;;;;17.00;14.55;;;1203.30;691.20;;;;;;5029703;28;20529;-62
2021/08/04 07:29:56;;;;;;;17.80;15.05;;;1178.00;691.20;;;;;;5030057;28;20025;-57
2021/08/04 07:32:22;;;;;;;18.00;14.70;;;1177.60;742.40;;;;;;5029927;28;20025;-58
2021/08/04 07:34:48;;;;;;;15.95;14.00;;;1177.70;716.80;;;;;;5029794;28;20025;-57
2021/08/04 07:37:13;;;;;;;14.75;13.38;;;1177.70;716.80;;;;;;5029879;28;20091;-58
2021/08/04 07:39:40;;;;;;;15.75;14.15;;;1152.90;716.80;;;;;;5011515;28;20034;-60
2021/08/04 07:42:05;;;;;;;15.82;14.43;;;1203.60;691.20;;;;;;5011796;28;20026;-60
2021/08/04 07:44:31;;;;;;;13.38;12.25;;;1229.00;691.20;;;;;;5029656;28;20380;-61
2021/08/04 07:46:57;;;;;;;13.20;12.02;;;1229.30;640.00;;;;;;5029821;28;20053;-57
2021/08/04 07:49:22;;;;;;;13.77;12.65;;;1228.90;665.60;;;;;;5029745;28;20152;-59
2021/08/04 07:51:49;;;;;;;13.20;12.30;;;1254.60;665.60;;;;;;5029599;28;20116;-59
2021/08/04 07:54:14;;;;;;;12.20;11.15;;;1255.10;640.00;;;;;;5029758;28;20034;-60
2021/08/04 07:56:40;;;;;;;11.27;10.38;;;1255.00;614.40;;;;;;5029702;28;20033;-61
2021/08/04 07:59:06;;;;;;;10.85;10.15;;;1255.30;588.80;;;;;;5029894;28;20148;-63
2021/08/04 08:01:31;;;;;;;11.07;10.38;;;1255.00;588.80;;;;;;5029471;28;20159;-58
2021/08/04 08:03:57;;;;;;;10.93;9.98;;;1280.20;588.80;;;;;;5029397;28;20042;-58
2021/08/04 08:06:23;;;;;;;11.95;11.15;;;1280.40;563.20;;;;;;5029551;28;20032;-58
2021/08/04 08:08:49;;;;;;;11.73;10.70;;;1280.50;563.20;;;;;;5032516;28;20037;-61
2021/08/04 08:11:15;;;;;;;11.07;10.35;;;1254.60;588.80;;;;;;5015044;28;20088;-57
2021/08/04 08:13:40;;;;;;;10.32;9.30;;;1280.40;588.80;;;;;;5033152;28;20024;-58
2021/08/04 08:16:06;;;;;;;10.35;9.45;;;1255.00;563.20;;;;;;5033447;28;20056;-57
2021/08/04 08:18:32;;;;;;;9.88;9.27;;;1280.20;563.20;;;;;;5033195;28;20038;-57
2021/08/04 08:20:58;;;;;;;10.55;9.55;;;1280.00;588.80;;;;;;5032973;28;20029;-57
2021/08/04 08:23:23;;;;;;;10.45;9.60;;;1280.00;588.80;;;;;;5033125;28;20077;-59
2021/08/04 08:25:49;;;;;;;9.95;9.20;;;1280.20;563.20;;;;;;5033038;28;20475;-57
2021/08/04 08:28:16;;;;;;;10.18;9.43;;;1255.10;537.60;;;;;;5032910;28;20099;-56
2021/08/04 08:30:42;;;;;;;8.68;7.97;;;1229.00;588.80;;;;;;5033054;28;20419;-57
2021/08/04 08:33:08;;;;;;;9.25;8.50;;;1203.70;588.80;;;;;;5032953;28;20522;-57
2021/08/04 08:35:34;;;;;;;7.53;6.93;;;1152.10;640.00;;;;;;5032995;28;20021;-57
2021/08/04 08:38:00;;;;;;;7.65;6.45;;;1075.30;691.20;;;;;;5032701;28;20025;-57
2021/08/04 08:40:26;;;;;;;6.35;4.45;;;1024.40;768.00;;;;;;5032876;28;20484;-56
2021/08/04 08:42:53;;;;;;;6.63;4.43;;;998.50;793.60;;;;;;5032797;28;20433;-57
2021/08/04 08:45:19;;;;;;;6.95;4.90;;;973.70;793.60;;;;;;5032596;28;20056;-57
2021/08/04 08:47:45;;;;;;;5.90;4.25;;;948.10;793.60;;;;;;5032900;28;20079;-58
2021/08/04 08:50:12;;;;;;;5.50;4.28;;;947.80;793.60;;;;;;5032577;28;20064;-57
2021/08/04 08:52:38;;;;;;;5.75;4.18;;;922.30;819.20;;;;;;5032358;28;20075;-57
2021/08/04 08:55:07;;;;;;;4.97;4.47;;;922.20;870.40;;;;;;5032866;28;20142;-57
2021/08/04 08:57:33;;;;;;;6.32;3.88;;;922.00;844.80;;;;;;5014191;28;20357;-57
2021/08/04 09:00:00;;;;;;;4.18;3.67;;;921.90;870.40;;;;;;5032621;28;20029;-60
2021/08/04 09:02:27;;;;;;;4.30;3.90;;;921.70;844.80;;;;;;5032318;28;20411;-60
2021/08/04 09:05:05;;;;;;;5.10;3.95;;;896.90;844.80;;;;;;5032607;28;20029;-58
2021/08/04 09:07:42;;;;;;;5.00;3.88;;;896.90;870.40;;;;;;5032513;28;20068;-57
2021/08/04 09:10:21;;;;;;;4.57;3.85;;;921.60;896.00;;;;;;5032483;28;20037;-56
2021/08/04 09:12:51;;;;;;;4.68;3.50;;;896.60;844.80;;;;;;5032307;28;20018;-59
2021/08/04 09:15:27;;;;;;;5.60;4.63;;;896.40;844.80;;;;;;5032455;28;20112;-61
2021/08/04 09:18:01;;;;;;;5.28;3.70;;;896.10;870.40;;;;;;5031855;28;20017;-62
2021/08/04 09:20:27;;;;;;;4.50;4.10;;;896.60;870.40;;;;;;5032413;28;20633;-62
2021/08/04 09:23:01;;;;;;;4.38;3.58;;;896.80;870.40;;;;;;5031993;28;20112;-59
2021/08/04 09:25:27;;;;;;;4.25;3.67;;;896.90;870.40;;;;;;5031997;28;20507;-63
2021/08/04 09:27:58;;;;;;;7.30;4.05;;;896.90;844.80;;;;;;5031831;28;20049;-61
2021/08/04 09:30:26;;;;;;;4.40;4.00;;;896.90;870.40;;;;;;5031870;28;20025;-63
2021/08/04 09:33:26;;;;;;;6.68;4.15;;;921.60;896.00;;;;;;5032067;28;20017;-63
2021/08/04 09:35:56;;;;;;;9.57;3.80;;;896.80;870.40;;;;;;5031761;28;20053;-62
2021/08/04 09:38:23;;;;;;;4.95;3.78;;;896.90;870.40;;;;;;5031726;28;20033;-61
2021/08/04 09:41:11;;;;;;;7.60;4.45;;;896.80;870.40;;;;;;5031046;28;20022;-63
2021/08/04 09:43:37;;;;;;;6.88;4.18;;;921.60;896.00;;;;;;5031747;28;20073;-62
2021/08/04 09:46:03;;;;;;;9.02;4.18;;;896.90;870.40;;;;;;5031622;28;20021;-62
2021/08/04 09:48:29;;;;;;;6.30;3.78;;;896.90;870.40;;;;;;5028169;28;20026;-57
2021/08/04 09:51:02;;;;;;;5.60;4.03;;;896.90;870.40;;;;;;5020688;28;20037;-58
2021/08/04 09:53:31;;;;;;;5.47;4.05;;;896.80;870.40;;;;;;5020427;28;20053;-57
2021/08/04 09:56:09;;;;;;;5.97;3.95;;;896.90;870.40;;;;;;5020218;28;20017;-62
2021/08/04 09:58:37;;;;;;;6.60;4.05;;;896.70;870.40;;;;;;5021627;28;20373;-61
2021/08/04 10:01:04;;;;;;;4.78;3.67;;;896.90;870.40;;;;;;5019963;28;20018;-60
2021/08/04 10:03:31;;;;;;;5.10;3.92;;;896.90;870.40;;;;;;5022397;28;20036;-62
2021/08/04 10:05:57;;;;;;;5.80;3.92;;;896.90;870.40;;;;;;5016248;28;20026;-62
2021/08/04 10:08:23;;;;;;;5.07;3.80;;;896.90;896.00;;;;;;5011835;28;20038;-61
2021/08/04 10:10:54;;;;;;;6.30;3.83;;;896.90;870.40;;;;;;5011412;28;20025;-61
2021/08/04 10:13:26;;;;;;;7.05;4.00;;;921.80;896.00;;;;;;5011280;28;20032;-61
2021/08/04 10:16:03;;;;;;;4.70;4.03;;;921.70;896.00;;;;;;5011140;28;20033;-62
2021/08/04 10:18:34;;;;;;;7.25;4.32;;;922.00;870.40;;;;;;5011120;28;20033;-62
2021/08/04 10:21:07;;;;;;;7.35;3.75;;;921.90;870.40;;;;;;5011042;28;20061;-61
2021/08/04 10:23:33;;;;;;;6.32;3.65;;;921.70;896.00;;;;;;5011183;28;20055;-61
2021/08/04 10:26:00;;;;;;;6.45;4.15;;;921.70;870.40;;;;;;5010901;28;20025;-61
2021/08/04 10:28:28;;;;;;;5.25;3.85;;;921.80;870.40;;;;;;5010997;28;20081;-61
2021/08/04 10:30:54;;;;;;;6.43;3.63;;;921.90;870.40;;;;;;5010411;28;20022;-60
2021/08/04 10:33:20;;;;;;;5.78;4.03;;;922.00;870.40;;;;;;5010789;28;20030;-61
2021/08/04 10:35:52;;;;;;;6.68;4.22;;;922.20;870.40;;;;;;5010881;28;20048;-60
2021/08/04 10:38:22;;;;;;;4.65;3.38;;;922.40;870.40;;;;;;5010755;28;20105;-61
2021/08/04 10:41:20;;;;;;;6.97;3.78;;;922.40;870.40;;;;;;5010730;28;20116;-62
2021/08/04 10:43:54;;;;;;;8.15;4.47;;;922.00;870.40;;;;;;5010735;28;20395;-60
2021/08/04 10:46:31;;;;;;;5.65;3.53;;;921.70;870.40;;;;;;4992649;28;20041;-61
2021/08/04 10:49:06;;;;;;;5.20;4.03;;;896.70;870.40;;;;;;5011098;28;20057;-62
2021/08/04 10:51:37;;;;;;;8.98;3.63;;;896.50;896.00;;;;;;5010531;28;20026;-58
2021/08/04 10:54:02;;;;;;;6.63;3.80;;;896.60;870.40;;;;;;5010821;28;20473;-63
2021/08/04 10:56:51;;;;;;;6.32;3.92;;;896.40;870.40;;;;;;5010356;28;20026;-61
2021/08/04 10:59:30;;;;;;;7.43;3.67;;;896.50;870.40;;;;;;5009661;28;20021;-64
2021/08/04 11:02:02;;;;;;;10.55;4.47;;;896.60;870.40;;;;;;5010542;28;20029;-58
2021/08/04 11:04:28;;;;;;;4.55;3.45;;;896.50;870.40;;;;;;5010410;28;20073;-61
2021/08/04 11:07:09;;;;;;;7.13;3.63;;;896.20;896.00;;;;;;5010597;28;20474;-61
2021/08/04 11:09:42;;;;;;;4.85;3.47;;;896.50;870.40;;;;;;5010640;28;20060;-62
2021/08/04 11:12:16;;;;;;;4.28;3.38;;;896.50;896.00;;;;;;5010503;28;20026;-59
2021/08/04 11:14:46;;;;;;;5.15;3.47;;;896.70;870.40;;;;;;5010179;28;20053;-58
2021/08/04 11:17:15;;;;;;;5.15;3.80;;;896.50;896.00;;;;;;5010276;28;20484;-61
2021/08/04 11:19:56;;;;;;;4.32;3.33;;;896.40;921.60;;;;;;5010224;28;20072;-59
2021/08/04 11:22:25;;;;;;;5.95;2.97;;;896.10;896.00;;;;;;5009931;28;20034;-60
2021/08/04 11:24:59;;;;;;;8.45;3.92;;;871.00;896.00;;;;;;4993078;28;20030;-61
2021/08/04 11:27:33;;;;;;;5.78;3.30;;;870.70;896.00;;;;;;5010135;28;20141;-61
2021/08/04 11:29:59;;;;;;;4.55;3.72;;;870.60;921.60;;;;;;5009982;28;20145;-62
2021/08/04 11:32:28;;;;;;;5.22;3.40;;;870.50;921.60;;;;;;5010057;28;20034;-62
2021/08/04 11:34:55;;;;;;;5.85;4.40;;;870.70;921.60;;;;;;5010131;28;20480;-63
2021/08/04 11:37:21;;;;;;;5.65;3.75;;;870.50;921.60;;;;;;5010137;28;20034;-60
2021/08/04 11:39:56;;;;;;;6.60;3.60;;;845.70;947.20;;;;;;5010315;28;20026;-61
2021/08/04 11:42:24;;;;;;;4.35;3.60;;;845.70;972.80;;;;;;5012204;28;20022;-61
2021/08/04 11:44:50;;;;;;;4.07;3.55;;;845.50;947.20;;;;;;5013934;28;20049;-62
2021/08/04 11:47:16;;;;;;;8.10;4.25;;;845.40;921.60;;;;;;5014151;28;20516;-60
2021/08/04 11:49:47;;;;;;;4.40;3.20;;;845.40;921.60;;;;;;5013914;28;20109;-60
2021/08/04 11:52:14;;;;;;;5.07;3.63;;;845.50;998.40;;;;;;5014059;28;20108;-63
2021/08/04 11:54:43;;;;;;;8.57;3.88;;;845.60;921.60;;;;;;5014040;28;20091;-62
2021/08/04 11:57:12;;;;;;;13.02;4.40;;;845.30;921.60;;;;;;5013835;28;20056;-62
2021/08/04 11:59:46;;;;;;;6.55;3.47;;;845.40;921.60;;;;;;5013877;28;20022;-63
2021/08/04 12:02:13;;;;;;;5.47;3.30;;;845.40;947.20;;;;;;5013457;28;20034;-62
2021/08/04 12:04:47;;;;;;;4.05;3.25;;;845.60;921.60;;;;;;5013632;28;20034;-61
2021/08/04 12:07:13;;;;;;;5.15;3.30;;;845.50;947.20;;;;;;5013836;28;20166;-62
2021/08/04 12:09:40;;;;;;;6.53;3.33;;;845.40;947.20;;;;;;5013585;28;20483;-62
2021/08/04 12:12:18;;;;;;;4.72;3.63;;;845.60;947.20;;;;;;5013721;28;20033;-62
2021/08/04 12:14:48;;;;;;;5.85;3.67;;;845.60;947.20;;;;;;5013808;28;20026;-62
2021/08/04 12:17:32;;;;;;;12.65;4.30;;;845.70;972.80;;;;;;5013669;28;20030;-63